Time;durP1;ratioP1;P1;durP2;ratioP2;P2;SDS_P1;SDS_P2;PMS_P1;PMS_P2;Temp;Humidity;BMP_temperature;BMP_pressure;BME280_temperature;BME280_humidity;BME280_pressure;Samples;Min_cycle;Max_cycle;Signal;HPM_P1;HPM_P2
2022/11/11 00:00:28;;;;;;;36.50;32.75;;;11.30;99.90;;;;;;5054408;28;20041;-82
2022/11/11 00:02:55;;;;;;;36.03;33.03;;;11.20;99.90;;;;;;5054877;28;20036;-82
2022/11/11 00:05:21;;;;;;;46.13;32.05;;;11.10;99.90;;;;;;5054881;28;20062;-82
2022/11/11 00:07:48;;;;;;;36.95;33.22;;;11.00;99.90;;;;;;5036665;28;20033;-83
2022/11/11 00:10:14;;;;;;;36.78;33.35;;;11.00;99.90;;;;;;5003489;28;20474;-82
2022/11/11 00:12:40;;;;;;;34.85;30.85;;;11.10;99.90;;;;;;5054627;28;20052;-82
2022/11/11 00:15:06;;;;;;;37.42;33.45;;;11.00;99.90;;;;;;5054197;28;20033;-82
2022/11/11 00:25:53;;;;;;;49.08;30.67;;;11.00;99.90;;;;;;5059154;28;20135;-82
2022/11/11 00:28:19;;;;;;;42.10;31.90;;;11.00;99.90;;;;;;5036144;28;20045;-82
2022/11/11 00:30:46;;;;;;;34.45;30.25;;;11.00;99.90;;;;;;5053903;28;20041;-82
2022/11/11 00:33:12;;;;;;;33.80;30.20;;;10.80;99.90;;;;;;5054539;28;20021;-83
2022/11/11 00:35:53;;;;;;;36.20;31.67;;;10.80;99.90;;;;;;5054448;28;20029;-82
2022/11/11 00:41:04;;;;;;;33.72;30.25;;;10.80;99.90;;;;;;5055348;28;19921;-83
2022/11/11 00:43:30;;;;;;;33.50;30.95;;;10.80;99.90;;;;;;5054279;28;20033;-82
2022/11/11 00:50:57;;;;;;;34.15;31.08;;;10.90;99.90;;;;;;5053571;28;20500;-82
2022/11/11 00:51:27;;;;;;;30.98;28.27;;;11.10;99.90;;;;;;5059371;28;20036;-82
2022/11/11 00:53:53;;;;;;;44.55;30.40;;;10.90;99.90;;;;;;5054039;28;20046;-82
2022/11/11 00:56:19;;;;;;;33.15;28.98;;;10.80;99.90;;;;;;5054121;28;20028;-82
2022/11/11 00:58:45;;;;;;;33.92;30.73;;;10.80;99.90;;;;;;5053876;28;20040;-82
2022/11/11 01:01:11;;;;;;;39.97;29.20;;;10.80;99.90;;;;;;5052381;28;20044;-83
2022/11/11 01:03:38;;;;;;;34.35;29.42;;;10.80;99.90;;;;;;5019085;28;20039;-83
2022/11/11 01:06:04;;;;;;;32.83;30.27;;;10.90;99.90;;;;;;5052273;28;20386;-83
2022/11/11 01:08:30;;;;;;;35.45;29.10;;;11.00;99.90;;;;;;5053690;28;20486;-82
2022/11/11 01:10:56;;;;;;;34.30;30.33;;;11.00;99.90;;;;;;5035852;28;20040;-82
2022/11/11 01:13:32;;;;;;;32.70;30.13;;;10.90;99.90;;;;;;5035787;28;20033;-82
2022/11/11 01:16:03;;;;;;;34.35;31.20;;;10.90;99.90;;;;;;5053126;28;20041;-82
2022/11/11 01:18:30;;;;;;;33.72;30.45;;;10.90;99.90;;;;;;5035902;28;20045;-82
2022/11/11 01:21:13;;;;;;;34.70;31.58;;;10.90;99.90;;;;;;5053197;28;20025;-82
2022/11/11 01:23:40;;;;;;;34.47;31.65;;;10.90;99.90;;;;;;5053548;28;20378;-82
2022/11/11 01:26:13;;;;;;;35.97;32.67;;;10.90;99.90;;;;;;5034822;28;20044;-82
2022/11/11 01:28:39;;;;;;;35.33;32.22;;;11.00;99.90;;;;;;5035578;28;20025;-82
2022/11/11 01:31:08;;;;;;;39.63;36.50;;;11.10;99.90;;;;;;5052806;28;20104;-82
2022/11/11 01:33:34;;;;;;;50.63;47.00;;;11.40;99.90;;;;;;5053293;28;20021;-82
2022/11/11 01:36:09;;;;;;;41.25;37.92;;;11.50;99.90;;;;;;5035044;28;20029;-83
2022/11/11 01:38:35;;;;;;;39.22;35.95;;;11.30;99.90;;;;;;5035503;28;20481;-82
2022/11/11 01:41:31;;;;;;;42.30;38.58;;;11.20;99.90;;;;;;5033473;28;20505;-82
2022/11/11 01:43:48;;;;;;;40.38;36.97;;;11.10;99.90;;;;;;5052962;28;20331;-82
2022/11/11 01:46:28;;;;;;;37.08;34.17;;;11.20;99.90;;;;;;5052390;28;20044;-82
2022/11/11 01:52:06;;;;;;;38.78;35.58;;;11.00;99.90;;;;;;5025477;28;20036;-82
2022/11/11 01:54:50;;;;;;;42.53;36.30;;;11.10;99.90;;;;;;5052939;28;20036;-83
2022/11/11 01:57:35;;;;;;;39.72;35.72;;;11.10;99.90;;;;;;5017829;28;20033;-82
2022/11/11 02:00:09;;;;;;;44.28;35.50;;;11.00;99.90;;;;;;5018910;28;20025;-82
2022/11/11 02:02:49;;;;;;;40.47;37.08;;;11.00;99.90;;;;;;5018593;28;20026;-83
2022/11/11 02:08:10;;;;;;;39.88;35.72;;;11.00;99.90;;;;;;5025860;28;20035;-82
2022/11/11 02:10:37;;;;;;;40.45;36.67;;;11.00;99.90;;;;;;5018973;28;20033;-82
2022/11/11 02:15:48;;;;;;;50.40;46.28;;;10.80;99.90;;;;;;5056730;28;20388;-82
2022/11/11 02:18:14;;;;;;;42.40;38.50;;;10.70;99.90;;;;;;5034338;28;20048;-83
2022/11/11 02:20:42;;;;;;;39.92;36.42;;;10.70;99.90;;;;;;5034430;28;20048;-82
2022/11/11 02:23:29;;;;;;;46.40;37.95;;;10.80;99.90;;;;;;5034820;28;20043;-82
2022/11/11 02:25:55;;;;;;;49.58;39.60;;;10.80;99.90;;;;;;5037360;28;20389;-82
2022/11/11 02:28:22;;;;;;;49.72;45.72;;;10.80;99.90;;;;;;5034731;28;20040;-82
2022/11/11 02:30:48;;;;;;;47.45;44.13;;;10.90;99.90;;;;;;5034240;28;20033;-82
2022/11/11 02:33:14;;;;;;;40.10;36.47;;;10.80;99.90;;;;;;5034145;28;20389;-82
2022/11/11 02:35:54;;;;;;;48.35;37.85;;;10.80;99.90;;;;;;5034642;28;20033;-82
2022/11/11 02:38:20;;;;;;;44.15;40.25;;;10.80;99.90;;;;;;5050985;28;20045;-82
2022/11/11 02:43:31;;;;;;;51.55;47.60;;;10.60;99.90;;;;;;5054185;28;20525;-82
2022/11/11 02:45:57;;;;;;;47.42;43.15;;;10.50;99.90;;;;;;5033942;28;20044;-82
2022/11/11 02:48:23;;;;;;;61.65;39.17;;;10.40;99.90;;;;;;5032909;28;20021;-82
2022/11/11 02:50:49;;;;;;;44.40;36.67;;;10.30;99.90;;;;;;5034575;28;20096;-82
2022/11/11 02:53:15;;;;;;;44.17;40.45;;;10.30;99.90;;;;;;5056273;28;20029;-81
2022/11/11 02:55:41;;;;;;;42.72;39.03;;;10.20;99.90;;;;;;5056409;28;20033;-81
2022/11/11 02:58:08;;;;;;;41.67;37.47;;;10.20;99.90;;;;;;5056107;28;20040;-82
2022/11/11 03:00:34;;;;;;;42.88;35.33;;;10.20;99.90;;;;;;5055186;28;20389;-82
2022/11/11 03:03:01;;;;;;;38.72;34.58;;;10.20;99.90;;;;;;5020519;28;20555;-82
2022/11/11 03:05:27;;;;;;;39.38;35.22;;;10.30;99.90;;;;;;5047301;28;20032;-82
2022/11/11 03:07:53;;;;;;;55.42;35.88;;;10.20;99.90;;;;;;5024463;28;20060;-82
2022/11/11 03:10:19;;;;;;;50.50;34.35;;;10.10;99.90;;;;;;5045379;28;20032;-82
2022/11/11 03:12:45;;;;;;;60.00;34.80;;;10.20;99.90;;;;;;5043802;28;20030;-83
2022/11/11 03:15:12;;;;;;;42.65;36.22;;;10.20;99.90;;;;;;5033824;28;20041;-83
2022/11/11 03:17:38;;;;;;;43.75;36.65;;;10.10;99.90;;;;;;5049553;28;20412;-83
2022/11/11 03:23:01;;;;;;;80.13;34.65;;;9.90;99.90;;;;;;5045922;28;20040;-83
2022/11/11 03:25:39;;;;;;;38.35;34.65;;;10.10;99.90;;;;;;5019283;28;20044;-83
2022/11/11 03:28:09;;;;;;;58.15;37.45;;;10.10;99.90;;;;;;5023047;28;20040;-83
2022/11/11 03:30:36;;;;;;;49.22;36.28;;;10.10;99.90;;;;;;5019726;28;20029;-83
2022/11/11 03:33:02;;;;;;;44.70;41.05;;;10.10;99.90;;;;;;5053704;28;20040;-83
2022/11/11 03:35:29;;;;;;;42.28;38.92;;;10.00;99.90;;;;;;5053064;28;20048;-83
2022/11/11 03:40:42;;;;;;;43.97;39.55;;;9.90;99.90;;;;;;5040536;28;20048;-82
2022/11/11 03:43:08;;;;;;;43.10;39.28;;;9.90;99.90;;;;;;5055379;28;20036;-82
2022/11/11 03:45:34;;;;;;;40.05;35.03;;;9.80;99.90;;;;;;5036830;28;20029;-82
2022/11/11 03:48:00;;;;;;;39.40;35.90;;;9.80;99.90;;;;;;5055152;28;20025;-82
2022/11/11 03:50:26;;;;;;;36.95;33.13;;;9.70;99.90;;;;;;5055165;28;20036;-82
2022/11/11 03:52:52;;;;;;;35.15;31.50;;;9.80;99.90;;;;;;5037820;28;20405;-82
2022/11/11 03:55:18;;;;;;;35.90;32.95;;;9.80;99.90;;;;;;5055186;28;20025;-82
2022/11/11 03:57:45;;;;;;;36.95;33.30;;;9.70;99.90;;;;;;5037165;28;20409;-82
2022/11/11 04:00:12;;;;;;;37.47;34.53;;;9.80;99.90;;;;;;5054174;28;20025;-82
2022/11/11 04:10:57;;;;;;;38.33;35.22;;;9.80;99.90;;;;;;5027508;28;20040;-84
2022/11/11 04:16:08;;;;;;;35.20;32.28;;;9.70;99.90;;;;;;5025048;28;20048;-84
2022/11/11 04:25:47;;;;;;;35.92;32.47;;;9.80;99.90;;;;;;5061359;28;20032;-84
2022/11/11 04:26:50;;;;;;;35.92;33.03;;;9.70;99.90;;;;;;5054523;28;20024;-84
2022/11/11 04:29:28;;;;;;;34.90;31.83;;;9.80;99.90;;;;;;5036014;28;20029;-84
2022/11/11 04:34:40;;;;;;;34.03;30.98;;;9.80;99.90;;;;;;5060447;28;20040;-84
2022/11/11 04:37:07;;;;;;;35.50;32.60;;;9.90;99.90;;;;;;5036802;28;20028;-84
2022/11/11 04:42:17;;;;;;;35.58;32.22;;;9.80;99.90;;;;;;5059538;28;20044;-84
2022/11/11 04:47:28;;;;;;;34.80;31.90;;;9.80;99.90;;;;;;5038344;28;20513;-85
2022/11/11 04:49:54;;;;;;;37.03;33.80;;;9.80;99.90;;;;;;5035607;28;20037;-84
2022/11/11 04:52:26;;;;;;;44.30;35.05;;;9.80;99.90;;;;;;5020011;28;20033;-84
2022/11/11 04:57:45;;;;;;;32.97;29.63;;;9.70;99.90;;;;;;5060790;28;20043;-84
2022/11/11 05:00:15;;;;;;;39.03;35.90;;;9.70;99.90;;;;;;5019331;28;20037;-84
2022/11/11 05:05:26;;;;;;;34.80;31.90;;;9.60;99.90;;;;;;5028620;28;20402;-84
2022/11/11 05:10:37;;;;;;;36.67;33.45;;;9.70;99.90;;;;;;5040981;28;20052;-84
2022/11/11 05:21:22;;;;;;;35.47;32.08;;;9.90;99.90;;;;;;5055813;28;20040;-84
2022/11/11 05:26:33;;;;;;;35.40;32.50;;;10.10;99.90;;;;;;5038963;28;20032;-84
2022/11/11 05:28:59;;;;;;;36.20;32.85;;;10.00;99.90;;;;;;5035560;28;20025;-84
2022/11/11 05:31:26;;;;;;;36.03;33.05;;;10.10;99.90;;;;;;5034987;28;20033;-84
2022/11/11 05:33:52;;;;;;;35.85;32.45;;;10.10;99.90;;;;;;5035541;28;20029;-84
2022/11/11 05:36:18;;;;;;;74.97;29.58;;;10.10;99.90;;;;;;5053338;28;20029;-84
2022/11/11 05:38:44;;;;;;;32.55;29.20;;;10.00;99.90;;;;;;5035326;28;20036;-84
2022/11/11 05:41:10;;;;;;;30.23;27.77;;;9.90;99.90;;;;;;5031940;28;20053;-84
2022/11/11 05:43:37;;;;;;;35.67;32.80;;;9.70;99.90;;;;;;5031079;28;20521;-84
2022/11/11 05:46:03;;;;;;;36.55;33.45;;;9.70;99.90;;;;;;5032620;28;20029;-84
2022/11/11 05:48:30;;;;;;;38.55;35.13;;;9.70;99.90;;;;;;5031800;28;20414;-84
2022/11/11 05:50:58;;;;;;;36.10;32.42;;;9.80;99.90;;;;;;5031890;28;20474;-84
2022/11/11 05:53:24;;;;;;;42.15;38.72;;;9.80;99.90;;;;;;5014971;28;20033;-84
2022/11/11 05:55:50;;;;;;;43.38;40.17;;;9.80;99.90;;;;;;5032775;28;20021;-84
2022/11/11 05:58:17;;;;;;;31.23;28.27;;;9.80;99.90;;;;;;5031858;28;20038;-84
2022/11/11 06:00:43;;;;;;;34.83;31.75;;;9.80;99.90;;;;;;5031265;28;20041;-84
2022/11/11 06:03:09;;;;;;;32.92;29.88;;;9.60;99.90;;;;;;5032822;28;20033;-84
2022/11/11 06:05:36;;;;;;;33.00;29.52;;;9.70;99.90;;;;;;5032870;28;20458;-84
2022/11/11 06:08:02;;;;;;;29.23;26.98;;;9.70;99.90;;;;;;5032806;28;20029;-84
2022/11/11 06:10:31;;;;;;;30.98;28.52;;;9.60;99.90;;;;;;5030143;28;20470;-84
2022/11/11 06:13:01;;;;;;;35.83;25.65;;;9.50;99.90;;;;;;5015479;28;20034;-84
2022/11/11 06:15:27;;;;;;;29.40;26.73;;;9.30;99.90;;;;;;5031183;28;20482;-84
2022/11/11 06:17:53;;;;;;;31.25;28.35;;;9.40;99.90;;;;;;5031601;28;20029;-84
2022/11/11 06:20:19;;;;;;;28.95;26.58;;;9.40;99.90;;;;;;5015062;28;20478;-84
2022/11/11 06:22:58;;;;;;;29.42;27.00;;;9.30;99.90;;;;;;5032642;28;20022;-84
2022/11/11 06:28:18;;;;;;;25.30;22.90;;;9.50;99.90;;;;;;4972196;28;20074;-84
2022/11/11 06:30:44;;;;;;;31.27;24.42;;;9.50;99.90;;;;;;4971119;28;20069;-84
2022/11/11 06:33:10;;;;;;;27.45;24.67;;;9.50;99.90;;;;;;4971500;28;20090;-84
2022/11/11 06:35:37;;;;;;;27.10;24.73;;;9.40;99.90;;;;;;4971468;28;20046;-84
2022/11/11 06:38:04;;;;;;;26.52;24.52;;;9.30;99.90;;;;;;4971580;28;20039;-84
2022/11/11 06:40:30;;;;;;;26.58;24.17;;;9.30;99.90;;;;;;4968758;28;20050;-84
2022/11/11 06:42:57;;;;;;;26.00;22.85;;;9.20;99.90;;;;;;4971533;28;20042;-84
2022/11/11 06:45:24;;;;;;;26.88;24.25;;;9.30;99.90;;;;;;4970966;28;20532;-84
2022/11/11 06:47:50;;;;;;;25.42;23.38;;;9.30;99.90;;;;;;4971443;28;20035;-84
2022/11/11 06:50:16;;;;;;;254.85;40.97;;;9.40;99.90;;;;;;4971315;28;20392;-84
2022/11/11 06:52:42;;;;;;;32.35;22.92;;;9.40;99.90;;;;;;4955513;28;20478;-84
2022/11/11 06:55:09;;;;;;;32.85;26.17;;;9.40;99.90;;;;;;4971063;28;20043;-84
2022/11/11 06:57:36;;;;;;;25.90;22.83;;;9.20;99.90;;;;;;4955430;28;20027;-84
2022/11/11 07:00:03;;;;;;;32.20;24.27;;;9.20;99.90;;;;;;4938511;28;20051;-84
2022/11/11 07:02:30;;;;;;;27.08;25.05;;;9.10;99.90;;;;;;4953327;28;20553;-83
2022/11/11 07:04:56;;;;;;;26.23;23.70;;;9.00;99.90;;;;;;4977354;28;20037;-84
2022/11/11 07:07:22;;;;;;;42.67;24.30;;;9.10;99.90;;;;;;4998073;28;20030;-83
2022/11/11 07:09:48;;;;;;;26.30;23.63;;;9.00;99.90;;;;;;5014074;28;20070;-84
2022/11/11 07:12:14;;;;;;;34.08;21.88;;;9.10;99.90;;;;;;5032088;28;20029;-83
2022/11/11 07:14:40;;;;;;;27.48;23.85;;;9.10;99.90;;;;;;5032113;28;20514;-84
2022/11/11 07:17:06;;;;;;;28.45;25.52;;;9.10;99.90;;;;;;5031503;28;20030;-84
2022/11/11 07:19:32;;;;;;;25.67;23.33;;;9.10;99.90;;;;;;5013917;28;20495;-84
2022/11/11 07:21:59;;;;;;;29.50;27.00;;;9.10;99.90;;;;;;5030970;28;20040;-84
2022/11/11 07:24:25;;;;;;;36.40;27.92;;;9.20;99.90;;;;;;5031718;28;20394;-84
2022/11/11 07:26:51;;;;;;;29.83;27.23;;;9.30;99.90;;;;;;5030764;28;20037;-84
2022/11/11 07:29:17;;;;;;;29.27;26.35;;;9.40;99.90;;;;;;5031909;28;20033;-84
2022/11/11 07:31:43;;;;;;;27.80;25.42;;;9.40;99.90;;;;;;5031417;28;20519;-84
2022/11/11 07:34:09;;;;;;;41.58;26.77;;;9.20;99.90;;;;;;5030723;28;20037;-84
2022/11/11 07:36:35;;;;;;;44.85;29.30;;;9.20;99.90;;;;;;5031854;28;20390;-84
2022/11/11 07:39:01;;;;;;;30.75;28.13;;;9.20;99.90;;;;;;5033450;28;20045;-84
2022/11/11 07:41:27;;;;;;;33.03;29.73;;;9.30;99.90;;;;;;5050773;28;20398;-84
2022/11/11 07:43:53;;;;;;;37.60;30.15;;;9.20;99.90;;;;;;5055269;28;20489;-84
2022/11/11 07:46:19;;;;;;;33.75;28.27;;;9.40;99.90;;;;;;5018664;28;20033;-84
2022/11/11 07:48:45;;;;;;;33.45;27.98;;;9.40;99.90;;;;;;5055244;28;20024;-84
2022/11/11 07:51:12;;;;;;;28.42;22.70;;;9.20;99.90;;;;;;5021046;28;20032;-84
2022/11/11 07:53:38;;;;;;;40.47;30.33;;;9.10;99.90;;;;;;5037322;28;20025;-84
2022/11/11 07:56:04;;;;;;;34.50;28.17;;;9.00;99.90;;;;;;5037387;28;20032;-84
2022/11/11 07:58:30;;;;;;;23.13;20.40;;;9.20;99.90;;;;;;5020660;28;20505;-84
2022/11/11 08:00:59;;;;;;;53.65;27.60;;;9.20;99.90;;;;;;5019859;28;20032;-84
2022/11/11 08:03:25;;;;;;;36.92;23.20;;;9.00;99.90;;;;;;5037282;28;20029;-83
2022/11/11 08:05:51;;;;;;;32.97;27.13;;;9.00;99.90;;;;;;5037275;28;20032;-84
2022/11/11 08:08:19;;;;;;;83.60;26.42;;;9.00;99.90;;;;;;5036368;28;20497;-84
2022/11/11 08:10:45;;;;;;;36.33;25.73;;;9.00;99.90;;;;;;5054943;28;20501;-83
2022/11/11 08:15:56;;;;;;;28.85;25.75;;;8.90;99.90;;;;;;5043428;28;20029;-84
2022/11/11 08:18:22;;;;;;;49.58;30.15;;;8.90;99.90;;;;;;5020344;28;20051;-84
2022/11/11 08:20:49;;;;;;;64.90;33.22;;;8.90;99.90;;;;;;5016736;28;20041;-83
2022/11/11 08:23:21;;;;;;;64.30;31.38;;;8.90;99.90;;;;;;5033914;28;20370;-84
2022/11/11 08:25:47;;;;;;;56.13;32.17;;;8.80;99.90;;;;;;5033854;28;20048;-83
2022/11/11 08:28:13;;;;;;;37.13;33.58;;;8.80;99.90;;;;;;5034557;28;20026;-84
2022/11/11 08:30:39;;;;;;;39.10;35.53;;;8.80;99.90;;;;;;5032993;28;20096;-84
2022/11/11 08:33:05;;;;;;;40.45;36.17;;;8.90;99.90;;;;;;5033348;28;20030;-84
2022/11/11 08:35:31;;;;;;;50.33;33.38;;;9.00;99.90;;;;;;5034283;28;20029;-84
2022/11/11 08:38:01;;;;;;;48.95;39.42;;;9.10;99.90;;;;;;5034407;28;20022;-84
2022/11/11 08:40:27;;;;;;;43.38;37.28;;;9.00;99.90;;;;;;5034079;28;20045;-84
2022/11/11 08:42:57;;;;;;;38.30;29.15;;;9.00;99.90;;;;;;5015450;28;20371;-83
2022/11/11 08:45:24;;;;;;;36.08;28.65;;;8.90;99.90;;;;;;5031938;28;20030;-83
2022/11/11 08:47:50;;;;;;;32.90;29.88;;;8.90;99.90;;;;;;5017855;28;20041;-83
2022/11/11 08:50:16;;;;;;;36.97;30.05;;;8.80;99.90;;;;;;5035742;28;20552;-84
2022/11/11 08:52:49;;;;;;;39.63;36.17;;;8.80;99.90;;;;;;5054127;28;20394;-84
2022/11/11 08:55:15;;;;;;;34.72;31.48;;;8.80;99.90;;;;;;5054072;28;20029;-84
2022/11/11 08:57:41;;;;;;;41.80;38.03;;;8.80;99.90;;;;;;5036405;28;20037;-84
2022/11/11 09:00:09;;;;;;;34.90;31.50;;;8.90;99.90;;;;;;5035503;28;20044;-84
2022/11/11 09:02:35;;;;;;;74.38;40.40;;;8.90;99.90;;;;;;5053811;28;20040;-84
2022/11/11 09:05:01;;;;;;;43.97;40.50;;;9.00;99.90;;;;;;5053663;28;20037;-84
2022/11/11 09:07:27;;;;;;;60.35;42.92;;;9.00;99.90;;;;;;5019697;28;20036;-84
2022/11/11 09:09:53;;;;;;;58.90;45.33;;;9.10;99.90;;;;;;5035063;28;20040;-84
2022/11/11 09:12:19;;;;;;;65.63;52.90;;;9.10;99.90;;;;;;5019592;28;20021;-84
2022/11/11 09:14:47;;;;;;;46.40;42.10;;;9.10;99.90;;;;;;5036028;28;20029;-84
2022/11/11 09:17:13;;;;;;;27.45;24.85;;;9.10;99.90;;;;;;5052285;28;20025;-84
2022/11/11 09:19:39;;;;;;;33.53;30.33;;;9.10;99.90;;;;;;5035341;28;20497;-83
2022/11/11 09:22:05;;;;;;;37.05;33.80;;;9.00;99.90;;;;;;5053519;28;20039;-84
2022/11/11 09:24:32;;;;;;;54.88;48.83;;;9.10;99.90;;;;;;5053541;28;20473;-84
2022/11/11 09:26:58;;;;;;;45.80;41.83;;;9.10;99.90;;;;;;5035737;28;20033;-84
2022/11/11 09:29:24;;;;;;;34.55;31.23;;;9.20;99.90;;;;;;5053297;28;20060;-84
2022/11/11 09:31:50;;;;;;;54.67;48.63;;;9.10;99.90;;;;;;5035182;28;20033;-84
2022/11/11 09:34:16;;;;;;;55.10;49.13;;;9.10;99.90;;;;;;5035370;28;20029;-84
2022/11/11 09:36:42;;;;;;;44.80;40.28;;;9.20;99.90;;;;;;5035541;28;20028;-84
2022/11/11 09:39:08;;;;;;;47.88;42.90;;;9.30;99.90;;;;;;5053125;28;20037;-84
2022/11/11 09:42:16;;;;;;;34.40;31.30;;;9.40;99.90;;;;;;5035335;28;20045;-84
2022/11/11 09:45:13;;;;;;;35.38;31.63;;;9.40;99.90;;;;;;5035155;28;20064;-84
2022/11/11 09:48:06;;;;;;;33.78;30.75;;;9.60;99.90;;;;;;5034427;28;20375;-83
2022/11/11 09:50:33;;;;;;;54.38;40.65;;;9.70;99.90;;;;;;5018135;28;20037;-84
2022/11/11 09:53:03;;;;;;;32.92;29.55;;;9.60;99.90;;;;;;5035226;28;20025;-84
2022/11/11 09:55:47;;;;;;;47.70;35.35;;;9.60;99.90;;;;;;5053050;28;20378;-84
2022/11/11 09:58:18;;;;;;;30.75;27.63;;;9.60;99.90;;;;;;5019310;28;20025;-84
2022/11/11 10:00:46;;;;;;;35.90;32.55;;;9.60;99.90;;;;;;5051423;28;20048;-84
2022/11/11 10:03:20;;;;;;;34.42;31.45;;;9.50;99.90;;;;;;5001370;28;20041;-83
2022/11/11 10:06:08;;;;;;;45.03;35.63;;;9.60;99.90;;;;;;5018712;28;20032;-84
2022/11/11 10:09:01;;;;;;;67.43;47.90;;;9.70;99.90;;;;;;5052594;28;20033;-84
2022/11/11 10:11:47;;;;;;;49.83;40.63;;;9.80;99.90;;;;;;5020557;28;20044;-84
2022/11/11 10:14:13;;;;;;;46.38;39.55;;;9.80;99.90;;;;;;5020705;28;20028;-84
2022/11/11 10:16:45;;;;;;;35.83;32.55;;;9.90;99.90;;;;;;5018045;28;20040;-83
2022/11/11 10:19:52;;;;;;;53.08;40.85;;;9.90;99.90;;;;;;5052665;28;20029;-84
2022/11/11 10:22:22;;;;;;;35.83;32.47;;;9.90;99.90;;;;;;4991175;28;20037;-84
2022/11/11 10:25:00;;;;;;;56.92;45.90;;;9.90;99.90;;;;;;4974878;28;20035;-84
2022/11/11 10:27:26;;;;;;;55.70;40.63;;;10.00;99.90;;;;;;4959547;28;20518;-84
2022/11/11 10:29:52;;;;;;;30.85;28.25;;;10.00;99.90;;;;;;4958374;28;20034;-83
2022/11/11 10:32:19;;;;;;;28.42;26.33;;;9.90;99.90;;;;;;4957601;28;20506;-83
2022/11/11 10:34:45;;;;;;;27.38;25.25;;;9.80;99.90;;;;;;4974903;28;20045;-84
2022/11/11 10:37:40;;;;;;;31.73;29.13;;;9.80;99.90;;;;;;4974655;28;20050;-83
2022/11/11 10:40:21;;;;;;;26.80;24.83;;;9.80;99.90;;;;;;4975454;28;20110;-84
2022/11/11 10:42:47;;;;;;;;;;;9.90;99.90;;;;;;4975073;28;20042;-83
2022/11/11 10:45:42;;;;;;;29.52;27.13;;;9.90;99.90;;;;;;4990457;28;20366;-84
2022/11/11 10:48:11;;;;;;;28.85;26.63;;;9.90;99.90;;;;;;4951861;29;20043;-84
2022/11/11 10:50:45;;;;;;;29.52;26.75;;;9.90;99.90;;;;;;4951903;29;20078;-84
2022/11/11 10:53:18;;;;;;;30.90;28.27;;;10.00;99.90;;;;;;4951960;29;20043;-84
2022/11/11 10:55:52;;;;;;;34.13;31.33;;;10.10;99.90;;;;;;4951944;29;20035;-84
2022/11/11 10:58:26;;;;;;;31.23;28.60;;;10.00;99.90;;;;;;4935845;28;20050;-84
2022/11/11 11:00:52;;;;;;;31.55;29.02;;;10.10;99.90;;;;;;4935233;29;20043;-84
2022/11/11 11:03:21;;;;;;;33.75;30.75;;;10.10;99.90;;;;;;4920248;29;20038;-84
2022/11/11 11:06:10;;;;;;;34.63;31.45;;;10.10;99.90;;;;;;4951941;29;20135;-84
2022/11/11 11:08:39;;;;;;;35.35;32.20;;;10.10;99.90;;;;;;4951849;29;20031;-84
2022/11/11 11:11:36;;;;;;;37.22;33.72;;;10.20;99.90;;;;;;4935987;29;20031;-84
2022/11/11 11:14:25;;;;;;;37.72;34.03;;;10.10;99.90;;;;;;4920019;29;20040;-84
2022/11/11 11:16:54;;;;;;;35.47;32.10;;;10.10;99.90;;;;;;4920116;29;20038;-83
2022/11/11 11:19:25;;;;;;;33.47;30.65;;;10.00;99.90;;;;;;4920697;29;20040;-83
2022/11/11 11:21:58;;;;;;;34.40;31.40;;;10.10;99.90;;;;;;4920572;29;20412;-83
2022/11/11 11:24:30;;;;;;;33.95;31.13;;;10.20;99.90;;;;;;4928273;28;20035;-84
2022/11/11 11:27:00;;;;;;;33.85;31.02;;;10.20;99.90;;;;;;4958988;28;20031;-83
2022/11/11 11:29:31;;;;;;;32.72;30.13;;;10.20;99.90;;;;;;4973829;28;20047;-84
2022/11/11 11:32:23;;;;;;;33.70;30.80;;;10.30;99.90;;;;;;4958321;28;20039;-84
2022/11/11 11:34:50;;;;;;;34.25;31.33;;;10.30;99.90;;;;;;4942849;28;20496;-84
2022/11/11 11:37:17;;;;;;;33.60;30.77;;;10.30;99.90;;;;;;4958475;28;20121;-84
2022/11/11 11:39:44;;;;;;;29.95;27.63;;;10.40;99.90;;;;;;4957700;28;20046;-84
2022/11/11 11:42:33;;;;;;;35.25;32.15;;;10.30;99.90;;;;;;4958558;28;20053;-83
2022/11/11 11:45:28;;;;;;;35.63;32.55;;;10.30;99.90;;;;;;4974322;28;20039;-84
2022/11/11 11:48:00;;;;;;;36.50;33.50;;;10.30;99.90;;;;;;4959719;28;20030;-84
2022/11/11 11:50:26;;;;;;;36.60;33.58;;;10.40;99.90;;;;;;5007305;28;20033;-83
2022/11/11 11:53:03;;;;;;;37.42;34.42;;;10.40;99.90;;;;;;5035412;28;20051;-84
2022/11/11 11:55:34;;;;;;;38.65;35.05;;;10.50;99.90;;;;;;5017618;28;20029;-84
2022/11/11 11:58:38;;;;;;;37.78;34.38;;;10.60;99.90;;;;;;5017709;28;20017;-83
2022/11/11 12:01:24;;;;;;;37.45;34.30;;;10.70;99.90;;;;;;5034687;28;20049;-83
2022/11/11 12:03:59;;;;;;;39.92;36.55;;;10.70;99.90;;;;;;5019508;28;20386;-83
2022/11/11 12:06:28;;;;;;;39.33;36.25;;;10.70;99.90;;;;;;5035251;28;20045;-83
2022/11/11 12:09:15;;;;;;;38.30;35.30;;;10.60;99.90;;;;;;5017402;28;20021;-83
2022/11/11 12:11:45;;;;;;;42.45;39.10;;;10.60;99.90;;;;;;5017226;28;20041;-83
2022/11/11 12:14:41;;;;;;;42.95;39.20;;;10.70;99.90;;;;;;5017066;28;20041;-84
2022/11/11 12:17:33;;;;;;;41.88;38.55;;;10.70;99.90;;;;;;5002679;28;20029;-84
2022/11/11 12:20:19;;;;;;;61.13;53.60;;;10.80;99.90;;;;;;5044643;28;20045;-83
2022/11/11 12:22:58;;;;;;;60.47;53.95;;;10.80;99.90;;;;;;5036923;28;20032;-84
2022/11/11 12:25:24;;;;;;;46.05;41.95;;;10.80;99.90;;;;;;5053848;28;20033;-84
2022/11/11 12:27:55;;;;;;;70.85;60.80;;;10.90;99.90;;;;;;5054223;28;20029;-83
2022/11/11 12:30:28;;;;;;;54.05;48.53;;;10.80;99.90;;;;;;5035365;28;20044;-84
2022/11/11 12:33:29;;;;;;;61.78;53.33;;;10.90;99.90;;;;;;5037571;28;20021;-84
2022/11/11 12:36:07;;;;;;;45.13;41.95;;;10.90;99.90;;;;;;4992904;28;20451;-83
2022/11/11 12:38:56;;;;;;;114.53;71.03;;;10.90;99.90;;;;;;4976853;28;20053;-84
2022/11/11 12:41:44;;;;;;;142.57;82.78;;;10.90;99.90;;;;;;4960114;28;20642;-84
2022/11/11 12:44:11;;;;;;;84.28;63.45;;;11.00;99.90;;;;;;4976643;28;20031;-84
2022/11/11 12:47:09;;;;;;;76.05;61.10;;;11.00;99.90;;;;;;4976040;28;20038;-84
2022/11/11 12:49:44;;;;;;;54.47;50.25;;;11.10;99.90;;;;;;4953794;28;20044;-84
2022/11/11 12:52:43;;;;;;;57.85;53.50;;;11.10;99.90;;;;;;4953959;29;20525;-84
2022/11/11 12:55:21;;;;;;;45.95;42.63;;;11.00;99.90;;;;;;4953471;29;20050;-83
2022/11/11 12:57:58;;;;;;;40.35;37.42;;;11.10;99.90;;;;;;4952579;29;20440;-84
2022/11/11 13:00:24;;;;;;;47.28;43.88;;;11.20;99.90;;;;;;4953234;28;20043;-83
2022/11/11 13:02:56;;;;;;;49.28;46.03;;;11.20;99.90;;;;;;4937073;29;20141;-84
2022/11/11 13:05:41;;;;;;;51.83;48.28;;;11.20;99.90;;;;;;4953633;29;20047;-83
2022/11/11 13:08:22;;;;;;;52.50;48.75;;;11.30;99.90;;;;;;4936961;29;20505;-84
2022/11/11 13:10:53;;;;;;;;;;;11.30;99.90;;;;;;4960171;28;20039;-84
2022/11/11 13:13:40;;;;;;;48.10;44.67;;;11.30;99.90;;;;;;4976137;28;19906;-84
2022/11/11 13:16:09;;;;;;;52.83;48.55;;;11.30;99.90;;;;;;4991847;28;20042;-84
2022/11/11 13:18:48;;;;;;;43.40;39.80;;;11.20;99.90;;;;;;4992037;28;20030;-84
2022/11/11 13:21:17;;;;;;;46.05;42.13;;;11.30;99.90;;;;;;4975744;28;20510;-84
2022/11/11 13:23:43;;;;;;;42.50;38.78;;;11.40;99.90;;;;;;4976161;28;20041;-84
2022/11/11 13:26:30;;;;;;;36.83;33.88;;;11.50;99.90;;;;;;4990907;28;20397;-84
2022/11/11 13:29:23;;;;;;;39.70;37.20;;;11.60;99.90;;;;;;5035610;28;20496;-84
2022/11/11 13:31:49;;;;;;;37.33;34.72;;;11.60;99.90;;;;;;5052316;28;20033;-83
2022/11/11 13:34:15;;;;;;;39.17;36.58;;;11.70;99.90;;;;;;5035595;28;20465;-84
2022/11/11 13:36:48;;;;;;;46.80;43.88;;;11.70;99.90;;;;;;5035622;28;20149;-84
2022/11/11 13:39:29;;;;;;;45.60;42.67;;;11.70;99.90;;;;;;5035368;28;20031;-84
2022/11/11 13:41:56;;;;;;;;;;;11.70;99.90;;;;;;5035377;28;20041;-84
2022/11/11 13:44:50;;;;;;;53.17;49.78;;;11.80;99.90;;;;;;5053275;28;20292;-83
2022/11/11 13:47:24;;;;;;;47.00;44.05;;;11.70;99.90;;;;;;5029916;28;20030;-84
2022/11/11 13:49:58;;;;;;;42.53;39.38;;;11.70;99.90;;;;;;5034389;28;20021;-84
2022/11/11 13:52:33;;;;;;;42.40;39.25;;;11.70;99.90;;;;;;5053077;28;20036;-84
2022/11/11 13:55:18;;;;;;;50.45;46.50;;;11.80;99.90;;;;;;5002188;28;20036;-83
2022/11/11 13:57:49;;;;;;;43.60;40.03;;;11.70;99.90;;;;;;5021440;28;20033;-83
2022/11/11 14:00:20;;;;;;;36.40;32.88;;;11.70;99.90;;;;;;5034938;28;20389;-84
2022/11/11 14:02:46;;;;;;;41.03;37.10;;;11.80;99.90;;;;;;5052772;28;20373;-84
2022/11/11 14:05:12;;;;;;;37.53;34.40;;;11.90;99.90;;;;;;5018628;28;20043;-84
2022/11/11 14:07:47;;;;;;;39.53;35.50;;;11.90;99.90;;;;;;5052878;28;20033;-84
2022/11/11 14:10:16;;;;;;;43.63;39.05;;;12.00;99.90;;;;;;5034095;28;20044;-84
2022/11/11 14:12:52;;;;;;;36.15;33.45;;;12.10;99.90;;;;;;5052604;28;20032;-84